Terminal Aerodrome Forecast
Issued by NWS

Home | Current Version | Previous Version | Text Only | Print | Product List | Glossary On
Versions: 1 2 3 4 5 6 7 8 9 10 11 12 13 14 15 16 17 18 19 20 21 22 23 24 25 26 27 28 29 30 31 32 33 34 35 36 37 38
000
FTUS45 KPSR 272300
TAFIWA
TAF
KIWA 272320Z 2800/2824 29009KT P6SM SCT090
     FM280400 13006KT P6SM SKC
     FM281800 29006KT P6SM FEW100
      AMD LTD TO CLD VIS AND WIND 2803/2813=

USA.gov is the U.S. government's official web portal to all federal, state and local government web resources and services.